LHSN

Details ICAO LHSN
Name SZOLNOK
Region Hungary
Timezone Europe/Budapest (UTC+2.0)
Plans Departing 11
Arriving 7
Stats Elevation 322 ft / 98 m (AMSL)
Location 47.122859° 20.235500°
Runways 1
Magnetic Variation 4.973° E
Sunrise 2018-05-22 02:57:12 UTC / 2018-05-22 04:57:12 Local
Sunset 2018-05-22 18:17:06 UTC / 2018-05-22 20:17:06 Local
Advertisement - Login to hide

Runways

ID Width Length Bearing (true) Bearing (mag) Surface Threshold Offset Overrun Length
02 229 ft / 70 m 6,565 ft / 2,001 m 20.94° 15.97° Asphalt 0 ft / 0 m 0 ft / 0 m
20 229 ft / 70 m 6,565 ft / 2,001 m 200.94° 195.97° Asphalt 0 ft / 0 m 0 ft / 0 m

Map

Weather


0- 5 10 15 20 25 30 35+ Temperature / ° C

Clouds and Precipitation
Forecast for 2018-05-22 00:00 UTC. Updated 5 hours ago

Ground ~20,000 ft ~40,000 ft Winds

METAR

LHSN 220415Z 09002KT 6000 NSC 14/14 Q1016 NOSIG RMK WHT

TAF

Not found

Frequencies

Tower 129.00 MHz OPERA TWR
Tower 130.25 MHz OPERA TWR
Warning: Do not use this data for real-world aviation or navigation. No guarantee of current accuracy is given.